createdAt,value
2019-01-20T00:01:00.671Z,10.13
2019-01-20T00:06:10.020Z,10.77
2019-01-20T00:11:22.024Z,11.40
2019-01-20T00:16:32.247Z,10.17
2019-01-20T00:21:41.993Z,11.00
2019-01-20T00:26:53.156Z,8.90
2019-01-20T00:32:03.822Z,9.10
2019-01-20T00:37:15.461Z,8.37
2019-01-20T00:42:25.131Z,9.68
2019-01-20T00:47:38.116Z,11.57
2019-01-20T00:52:52.016Z,9.40
2019-01-20T00:58:06.788Z,12.25
2019-01-20T01:03:16.987Z,10.20
2019-01-20T01:08:25.875Z,9.03
2019-01-20T01:13:39.293Z,11.00
2019-01-20T01:18:50.567Z,9.97
2019-01-20T01:23:59.478Z,9.33
2019-01-20T01:29:27.277Z,8.43
2019-01-20T01:34:36.168Z,10.80
2019-01-20T01:39:43.890Z,8.90
2019-01-20T01:44:54.615Z,8.30
2019-01-20T01:50:05.434Z,10.40
2019-01-20T01:55:17.519Z,9.40
2019-01-20T02:00:27.991Z,11.18
2019-01-20T02:05:34.551Z,8.63
2019-01-20T02:10:43.444Z,10.23
2019-01-20T02:15:55.044Z,9.57
2019-01-20T02:21:01.641Z,10.33
2019-01-20T02:26:12.418Z,8.33
2019-01-20T02:31:20.552Z,11.40
2019-01-20T02:36:30.307Z,8.33
2019-01-20T02:41:39.444Z,9.63
2019-01-20T02:46:48.748Z,9.50
2019-01-20T02:51:59.474Z,9.80
2019-01-20T02:57:08.290Z,8.30
2019-01-20T03:02:30.671Z,7.20
2019-01-20T03:07:47.334Z,8.13
2019-01-20T03:13:03.716Z,9.40
2019-01-20T03:18:10.510Z,9.13
2019-01-20T03:23:17.540Z,6.65
2019-01-20T03:28:29.478Z,9.33
2019-01-20T03:33:38.056Z,9.03
2019-01-20T03:38:47.813Z,8.97
2019-01-20T03:43:57.489Z,9.40
2019-01-20T03:49:03.219Z,9.70
2019-01-20T03:54:11.461Z,8.80
2019-01-20T03:59:23.322Z,7.00
2019-01-20T04:04:32.644Z,8.90
2019-01-20T04:09:43.302Z,8.13
2019-01-20T04:14:54.022Z,10.30
2019-01-20T04:20:23.235Z,8.53
2019-01-20T04:25:32.230Z,9.23
2019-01-20T04:30:40.228Z,7.97
2019-01-20T04:35:49.992Z,7.83
2019-01-20T04:41:00.762Z,8.83
2019-01-20T04:46:11.843Z,8.37
2019-01-20T04:51:20.902Z,8.40
2019-01-20T04:56:29.766Z,7.83
2019-01-20T05:01:39.465Z,8.57
2019-01-20T05:06:52.809Z,8.80
2019-01-20T05:12:03.534Z,9.40
2019-01-20T05:17:15.973Z,8.03
2019-01-20T05:22:29.390Z,8.20
2019-01-20T05:28:51.490Z,7.97
2019-01-20T05:34:01.286Z,8.37
2019-01-20T05:39:10.511Z,9.47
2019-01-20T05:44:19.942Z,11.20
2019-01-20T05:49:29.727Z,11.23
2019-01-20T05:54:37.231Z,10.43
2019-01-20T05:59:48.940Z,8.95
2019-01-20T06:05:00.147Z,8.90
2019-01-20T06:10:12.902Z,7.42
2019-01-20T06:15:25.487Z,9.47
2019-01-20T06:20:38.854Z,8.53
2019-01-20T06:25:48.590Z,9.23
2019-01-20T06:30:58.075Z,9.08
2019-01-20T06:36:05.955Z,10.30
2019-01-20T06:41:17.442Z,9.70
2019-01-20T06:46:28.108Z,9.67
2019-01-20T06:51:37.927Z,11.57
2019-01-20T06:56:47.305Z,9.40
2019-01-20T07:01:58.841Z,8.47
2019-01-20T07:07:07.268Z,10.93
2019-01-20T07:12:17.250Z,10.35
2019-01-20T07:17:25.924Z,8.03
2019-01-20T07:22:36.100Z,11.03
2019-01-20T07:27:46.787Z,10.00
2019-01-20T07:32:55.879Z,11.37
2019-01-20T07:38:04.375Z,9.90
2019-01-20T07:43:17.007Z,10.13
2019-01-20T07:48:23.043Z,9.93
2019-01-20T07:53:33.768Z,11.33
2019-01-20T07:58:42.748Z,12.73
2019-01-20T08:03:56.425Z,11.83
2019-01-20T08:09:03.463Z,10.30
2019-01-20T08:14:13.763Z,9.37
2019-01-20T08:19:23.149Z,10.43
2019-01-20T08:24:34.757Z,10.37
2019-01-20T08:29:43.619Z,10.80
2019-01-20T08:34:53.445Z,12.10
2019-01-20T08:40:00.981Z,11.10
2019-01-20T08:45:14.439Z,10.13
2019-01-20T08:50:26.895Z,10.17
2019-01-20T08:55:34.232Z,10.97
2019-01-20T09:00:49.351Z,11.53
2019-01-20T09:05:59.126Z,9.87
2019-01-20T09:11:08.842Z,12.73
2019-01-20T09:16:22.701Z,11.43
2019-01-20T09:21:29.846Z,9.70
2019-01-20T09:26:40.046Z,11.90
2019-01-20T09:31:49.868Z,10.00
2019-01-20T09:36:59.300Z,9.20
2019-01-20T09:42:09.990Z,8.83
2019-01-20T09:47:19.319Z,8.38
2019-01-20T09:52:28.128Z,8.80
2019-01-20T09:57:37.923Z,8.30
2019-01-20T10:02:52.488Z,8.60
2019-01-20T10:08:02.896Z,9.83
2019-01-20T10:13:12.675Z,7.80
2019-01-20T10:18:29.740Z,9.28
2019-01-20T10:23:40.805Z,8.03
2019-01-20T10:28:49.138Z,7.53
2019-01-20T10:34:02.520Z,7.12
2019-01-20T10:39:12.206Z,8.27
2019-01-20T10:44:26.272Z,9.18
2019-01-20T10:49:34.751Z,6.92
2019-01-20T10:54:44.845Z,7.92
2019-01-20T10:59:57.417Z,7.10
2019-01-20T11:05:05.402Z,8.03
2019-01-20T11:10:13.153Z,7.42
2019-01-20T11:15:27.405Z,7.63
2019-01-20T11:20:34.994Z,7.28
2019-01-20T11:25:50.372Z,6.85
2019-01-20T11:30:59.666Z,8.80
2019-01-20T11:36:08.546Z,10.27
2019-01-20T11:41:28.463Z,10.65
2019-01-20T11:46:39.111Z,8.23
2019-01-20T11:51:51.103Z,7.90
2019-01-20T11:57:02.675Z,7.92
2019-01-20T12:02:10.567Z,7.27
2019-01-20T12:07:21.267Z,7.70
2019-01-20T12:12:32.380Z,8.43
2019-01-20T12:17:40.329Z,7.20
2019-01-20T12:22:52.322Z,5.97
2019-01-20T12:28:02.569Z,7.37
2019-01-20T12:33:15.183Z,7.00
2019-01-20T12:38:25.894Z,6.67
2019-01-20T12:43:36.554Z,5.20
2019-01-20T12:48:43.305Z,5.90
2019-01-20T12:53:50.534Z,5.65
2019-01-20T12:59:02.751Z,6.92
2019-01-20T13:04:13.896Z,6.15
2019-01-20T13:09:22.509Z,6.27
2019-01-20T13:14:39.271Z,5.92
2019-01-20T13:19:47.296Z,8.73
2019-01-20T13:24:57.222Z,8.88
2019-01-20T13:30:09.939Z,9.05
2019-01-20T13:35:20.613Z,7.53
2019-01-20T13:40:39.223Z,6.75
2019-01-20T13:45:48.133Z,7.67
2019-01-20T13:51:00.741Z,7.20
2019-01-20T13:56:10.885Z,8.53
2019-01-20T14:01:24.066Z,8.87
2019-01-20T14:06:33.587Z,7.03
2019-01-20T14:11:43.344Z,8.55
2019-01-20T14:16:53.222Z,7.40
2019-01-20T14:22:00.935Z,7.85
2019-01-20T14:27:09.254Z,8.73
2019-01-20T14:32:22.787Z,7.58
2019-01-20T14:37:31.634Z,8.20
2019-01-20T14:42:39.711Z,8.10
2019-01-20T14:47:46.224Z,7.50
2019-01-20T14:52:53.922Z,10.80
2019-01-20T14:58:07.448Z,9.70
2019-01-20T15:03:18.894Z,9.38
2019-01-20T15:08:31.490Z,7.90
2019-01-20T15:13:44.945Z,7.87
2019-01-20T15:18:52.875Z,9.23
2019-01-20T15:24:02.242Z,8.73
2019-01-20T15:29:12.073Z,9.00
2019-01-20T15:34:19.457Z,10.08
2019-01-20T15:39:27.588Z,8.53
2019-01-20T15:44:36.725Z,8.17
2019-01-20T15:49:44.922Z,10.87
2019-01-20T15:54:53.015Z,8.43
2019-01-20T16:00:04.963Z,8.27
2019-01-20T16:05:14.269Z,13.67
2019-01-20T16:10:22.255Z,12.30
2019-01-20T16:15:36.189Z,11.60
2019-01-20T16:20:44.149Z,11.13
2019-01-20T16:25:53.862Z,12.63
2019-01-20T16:31:07.658Z,11.20
2019-01-20T16:36:17.659Z,12.88
2019-01-20T16:41:27.112Z,12.93
2019-01-20T16:46:39.622Z,14.47
2019-01-20T16:51:54.962Z,13.47
2019-01-20T16:57:06.562Z,11.80
2019-01-20T17:02:15.881Z,11.47
2019-01-20T17:07:26.799Z,11.03
2019-01-20T17:12:36.538Z,12.30
2019-01-20T17:17:47.238Z,11.10
2019-01-20T17:23:02.754Z,11.65
2019-01-20T17:28:11.464Z,14.37
2019-01-20T17:33:23.204Z,12.23
2019-01-20T17:38:30.236Z,12.93
2019-01-20T17:43:38.373Z,13.07
2019-01-20T17:48:48.181Z,14.67
2019-01-20T17:53:56.808Z,13.27
2019-01-20T17:59:04.986Z,12.33
2019-01-20T18:04:17.713Z,13.00
2019-01-20T18:09:45.962Z,12.70
2019-01-20T18:14:54.840Z,17.63
2019-01-20T18:20:07.301Z,14.37
2019-01-20T18:25:17.801Z,13.77
2019-01-20T18:30:27.903Z,15.80
2019-01-20T18:35:42.418Z,21.50
2019-01-20T18:40:50.982Z,15.37
2019-01-20T18:46:01.874Z,20.77
2019-01-20T18:51:11.983Z,18.40
2019-01-20T18:56:22.674Z,17.62
2019-01-20T19:01:31.080Z,16.87
2019-01-20T19:06:40.438Z,19.47
2019-01-20T19:11:49.813Z,18.20
2019-01-20T19:16:55.946Z,18.35
2019-01-20T19:22:07.721Z,16.47
2019-01-20T19:27:18.606Z,21.53
2019-01-20T19:32:30.406Z,24.00
2019-01-20T19:37:40.428Z,18.67
2019-01-20T19:42:49.029Z,14.83
2019-01-20T19:48:01.040Z,15.23
2019-01-20T19:53:14.574Z,15.00
2019-01-20T19:58:27.279Z,14.67
2019-01-20T20:03:36.964Z,15.10
2019-01-20T20:08:46.796Z,16.53
2019-01-20T20:13:59.781Z,15.50
2019-01-20T20:19:10.638Z,19.47
2019-01-20T20:24:25.251Z,18.62
2019-01-20T20:29:34.632Z,16.77
2019-01-20T20:34:48.137Z,15.80
2019-01-20T20:39:58.174Z,15.20
2019-01-20T20:45:08.424Z,15.73
2019-01-20T20:50:20.834Z,17.25
2019-01-20T20:55:28.134Z,17.40
2019-01-20T21:00:43.790Z,16.87
2019-01-20T21:05:53.508Z,20.30
2019-01-20T21:11:01.641Z,20.00
2019-01-20T21:16:11.431Z,18.70
2019-01-20T21:21:21.225Z,21.02
2019-01-20T21:26:30.982Z,18.80
2019-01-20T21:31:42.571Z,22.27
2019-01-20T21:36:50.960Z,19.90
2019-01-20T21:41:59.904Z,16.17
2019-01-20T21:47:12.103Z,20.50
2019-01-20T21:52:22.959Z,20.10
2019-01-20T21:57:32.008Z,20.83
2019-01-20T22:02:42.172Z,18.47
2019-01-20T22:07:50.591Z,19.83
2019-01-20T22:13:00.667Z,19.73
2019-01-20T22:18:11.559Z,19.10
2019-01-20T22:23:19.285Z,20.50
2019-01-20T22:28:29.592Z,19.95
2019-01-20T22:33:39.305Z,21.53
2019-01-20T22:38:51.013Z,24.27
2019-01-20T22:44:01.768Z,21.17
2019-01-20T22:49:11.114Z,21.60
2019-01-20T22:54:23.595Z,23.45
2019-01-20T22:59:32.455Z,23.80
2019-01-20T23:04:41.733Z,20.30
2019-01-20T23:09:52.397Z,19.27
2019-01-20T23:15:05.029Z,18.43
2019-01-20T23:20:14.031Z,17.60
2019-01-20T23:25:21.289Z,22.13
2019-01-20T23:30:28.849Z,16.33
2019-01-20T23:35:39.461Z,17.07
2019-01-20T23:40:49.424Z,19.63
2019-01-20T23:45:59.184Z,16.57
2019-01-20T23:51:08.296Z,19.47
2019-01-20T23:56:19.877Z,19.75
